createdAt,value
2022-11-02T00:02:00.252Z,101205.69
2022-11-02T00:04:28.598Z,101207.47
2022-11-02T00:06:56.831Z,101206.88
2022-11-02T00:09:25.002Z,101203.41
2022-11-02T00:11:53.217Z,101199.19
2022-11-02T00:14:21.512Z,101185.47
2022-11-02T00:16:49.834Z,101194.31
2022-11-02T00:19:19.674Z,101199.56
2022-11-02T00:21:47.977Z,101201.13
2022-11-02T00:24:16.514Z,101201.19
2022-11-02T00:26:44.687Z,101192.88
2022-11-02T00:29:12.897Z,101201.81
2022-11-02T00:31:41.091Z,101196.53
2022-11-02T00:34:09.263Z,101198.44
2022-11-02T00:36:38.859Z,101196.94
2022-11-02T00:39:07.022Z,101196.53
2022-11-02T00:41:35.242Z,101197.13
2022-11-02T00:44:03.456Z,101200.78
2022-11-02T00:46:31.620Z,101192.41
2022-11-02T00:48:59.730Z,101192.41
2022-11-02T00:51:27.874Z,101198.13
2022-11-02T00:53:57.459Z,101191.19
2022-11-02T00:56:25.672Z,101199.59
2022-11-02T00:58:53.985Z,101201.84
2022-11-02T01:01:22.249Z,101203.75
2022-11-02T01:03:50.495Z,101196.09
2022-11-02T01:06:18.672Z,101195.50
2022-11-02T01:08:46.834Z,101194.06
2022-11-02T01:11:21.270Z,101198.28
2022-11-02T01:13:52.167Z,101201.84
2022-11-02T01:16:21.160Z,101203.06
2022-11-02T01:18:53.999Z,101189.66
2022-11-02T01:21:22.795Z,101198.19
2022-11-02T01:23:51.151Z,101211.94
2022-11-02T01:26:20.953Z,101196.28
2022-11-02T01:28:49.184Z,101197.50
2022-11-02T01:31:17.401Z,101203.50
2022-11-02T01:33:46.535Z,101202.50
2022-11-02T01:36:16.642Z,101199.72
2022-11-02T01:38:44.831Z,101204.63
2022-11-02T01:41:14.070Z,101209.94
2022-11-02T01:43:46.124Z,101206.34
2022-11-02T01:46:20.523Z,101208.63
2022-11-02T01:48:54.645Z,101207.97
2022-11-02T01:51:27.999Z,101207.03
2022-11-02T01:54:00.449Z,101214.94
2022-11-02T01:56:34.009Z,101216.06
2022-11-02T01:59:09.342Z,101209.91
2022-11-02T02:01:37.654Z,101224.66
2022-11-02T02:04:06.871Z,101220.41
2022-11-02T02:06:35.525Z,101223.75
2022-11-02T02:09:06.768Z,101220.94
2022-11-02T02:11:37.585Z,101215.72
2022-11-02T02:14:10.199Z,101222.53
2022-11-02T02:17:18.371Z,101223.03
2022-11-02T02:19:57.713Z,101213.97
2022-11-02T02:23:20.555Z,101217.06
2022-11-02T02:26:37.632Z,101216.72
2022-11-02T02:29:12.431Z,101209.63
2022-11-02T02:31:49.111Z,101210.56
2022-11-02T02:34:21.809Z,101213.81
2022-11-02T02:36:54.084Z,101208.91
2022-11-02T02:39:31.272Z,101218.56
2022-11-02T02:42:07.125Z,101206.47
2022-11-02T02:44:40.925Z,101207.06
2022-11-02T02:47:15.120Z,101208.09
2022-11-02T02:50:00.253Z,101207.63
2022-11-02T02:52:31.522Z,101209.91
2022-11-02T02:55:02.070Z,101204.34
2022-11-02T02:57:33.482Z,101209.06
2022-11-02T03:00:05.055Z,101219.44
2022-11-02T03:02:38.110Z,101211.84
2022-11-02T03:05:26.316Z,101221.47
2022-11-02T03:07:55.551Z,101225.59
2022-11-02T03:10:33.671Z,101218.53
2022-11-02T03:13:30.932Z,101223.97
2022-11-02T03:16:11.293Z,101230.44
2022-11-02T03:18:49.365Z,101239.25
2022-11-02T03:21:29.143Z,101227.19
2022-11-02T03:24:05.030Z,101228.28
2022-11-02T03:26:40.564Z,101238.72
2022-11-02T03:29:14.508Z,101236.53
2022-11-02T03:31:51.670Z,101250.34
2022-11-02T03:34:29.162Z,101253.13
2022-11-02T03:39:47.130Z,101255.31
2022-11-02T03:42:19.909Z,101247.66
2022-11-02T03:44:51.859Z,101263.78
2022-11-02T03:47:23.580Z,101266.13
2022-11-02T03:49:53.620Z,101269.63
2022-11-02T03:52:26.834Z,101278.31
2022-11-02T03:55:04.825Z,101280.84
2022-11-02T03:57:40.370Z,101282.38
2022-11-02T04:00:11.644Z,101283.53
2022-11-02T04:02:45.236Z,101293.41
2022-11-02T04:05:13.524Z,101291.81
2022-11-02T04:08:04.423Z,101295.38
2022-11-02T04:10:32.912Z,101298.06
2022-11-02T04:13:18.541Z,101294.63
2022-11-02T04:15:46.983Z,101305.50
2022-11-02T04:18:34.200Z,101303.44
2022-11-02T04:21:02.363Z,101304.41
2022-11-02T04:23:48.257Z,101308.63
2022-11-02T04:26:16.442Z,101317.47
2022-11-02T04:28:44.609Z,101311.03
2022-11-02T04:31:13.146Z,101317.91
2022-11-02T04:33:41.684Z,101313.38
2022-11-02T04:36:10.771Z,101328.91
2022-11-02T04:38:40.671Z,101330.56
2022-11-02T04:41:27.869Z,101329.88
2022-11-02T04:43:56.304Z,101341.19
2022-11-02T04:46:27.093Z,101335.78
2022-11-02T04:48:57.069Z,101344.31
2022-11-02T04:51:27.806Z,101352.00
2022-11-02T04:53:57.505Z,101347.38
2022-11-02T04:56:26.528Z,101355.19
2022-11-02T04:58:57.140Z,101356.56
2022-11-02T05:01:27.477Z,101352.84
2022-11-02T05:03:58.015Z,101350.19
2022-11-02T05:06:26.880Z,101358.72
2022-11-02T05:08:55.048Z,101354.75
2022-11-02T05:11:23.481Z,101364.03
2022-11-02T05:13:51.652Z,101366.81
2022-11-02T05:16:19.870Z,101364.03
2022-11-02T05:18:49.201Z,101370.06
2022-11-02T05:21:18.736Z,101366.00
2022-11-02T05:23:46.875Z,101363.22
2022-11-02T05:26:15.071Z,101366.19
2022-11-02T05:28:43.217Z,101381.88
2022-11-02T05:31:11.399Z,101380.59
2022-11-02T05:33:39.552Z,101382.03
2022-11-02T05:36:08.316Z,101378.56
2022-11-02T05:38:40.779Z,101380.34
2022-11-02T05:41:10.122Z,101383.75
2022-11-02T05:43:38.418Z,101385.19
2022-11-02T05:46:06.779Z,101395.53
2022-11-02T05:48:35.207Z,101383.13
2022-11-02T05:51:05.282Z,101388.50
2022-11-02T05:53:34.224Z,101401.31
2022-11-02T05:56:06.003Z,101401.53
2022-11-02T05:58:35.681Z,101402.66
2022-11-02T06:01:06.927Z,101405.59
2022-11-02T06:03:36.137Z,101408.03
2022-11-02T06:06:07.428Z,101408.69
2022-11-02T06:08:36.573Z,101414.81
2022-11-02T06:11:11.650Z,101414.94
2022-11-02T06:13:40.740Z,101431.50
2022-11-02T06:16:12.139Z,101432.38
2022-11-02T06:18:41.144Z,101436.09
2022-11-02T06:21:09.637Z,101442.25
2022-11-02T06:23:39.083Z,101455.66
2022-11-02T06:26:08.627Z,101446.72
2022-11-02T06:28:36.753Z,101456.50
2022-11-02T06:31:05.046Z,101473.16
2022-11-02T06:33:33.301Z,101460.31
2022-11-02T06:36:01.651Z,101468.03
2022-11-02T06:38:29.831Z,101470.63
2022-11-02T06:41:00.246Z,101477.38
2022-11-02T06:43:29.771Z,101480.97
2022-11-02T06:45:59.263Z,101480.66
2022-11-02T06:48:34.610Z,101489.63
2022-11-02T06:51:04.410Z,101487.31
2022-11-02T06:53:33.618Z,101503.38
2022-11-02T06:56:01.877Z,101513.16
2022-11-02T06:58:31.819Z,101514.88
2022-11-02T07:01:02.136Z,101515.25
2022-11-02T07:03:31.682Z,101525.13
2022-11-02T07:06:00.935Z,101522.00
2022-11-02T07:08:29.902Z,101537.31
2022-11-02T07:10:58.817Z,101557.59
2022-11-02T07:13:27.225Z,101559.22
2022-11-02T07:15:57.009Z,101560.34
2022-11-02T07:18:25.312Z,101562.19
2022-11-02T07:20:53.505Z,101572.97
2022-11-02T07:23:24.166Z,101575.94
2022-11-02T07:25:52.998Z,101580.84
2022-11-02T07:28:21.763Z,101595.78
2022-11-02T07:30:50.200Z,101598.38
2022-11-02T07:33:19.792Z,101600.91
2022-11-02T07:35:48.030Z,101612.63
2022-11-02T07:38:16.266Z,101610.94
2022-11-02T07:40:44.462Z,101618.84
2022-11-02T07:43:12.611Z,101622.44
2022-11-02T07:45:40.839Z,101622.16
2022-11-02T07:48:09.018Z,101630.88
2022-11-02T07:50:38.581Z,101633.31
2022-11-02T07:53:07.138Z,101638.66
2022-11-02T07:55:35.759Z,101639.09
2022-11-02T07:58:07.919Z,101647.06
2022-11-02T08:00:38.896Z,101643.38
2022-11-02T08:03:09.962Z,101646.03
2022-11-02T08:05:42.776Z,101649.19
2022-11-02T08:08:15.123Z,101658.72
2022-11-02T08:10:44.916Z,101666.19
2022-11-02T08:13:16.603Z,101663.06
2022-11-02T08:15:44.898Z,101670.94
2022-11-02T08:18:16.382Z,101659.81
2022-11-02T08:20:47.384Z,101665.25
2022-11-02T08:23:17.403Z,101668.25
2022-11-02T08:25:49.715Z,101664.75
2022-11-02T08:28:22.147Z,101672.25
2022-11-02T08:30:50.429Z,101674.91
2022-11-02T08:33:20.676Z,101695.75
2022-11-02T08:35:50.869Z,101680.16
2022-11-02T08:38:22.394Z,101686.66
2022-11-02T08:40:50.885Z,101694.91
2022-11-02T08:43:19.033Z,101688.69
2022-11-02T08:46:13.685Z,101692.72
2022-11-02T08:48:35.391Z,101694.06
2022-11-02T08:51:05.672Z,101696.94
2022-11-02T08:53:34.020Z,101702.34
2022-11-02T08:56:02.285Z,101694.22
2022-11-02T08:58:30.515Z,101706.78
2022-11-02T09:00:58.754Z,101699.94
2022-11-02T09:03:28.272Z,101706.88
2022-11-02T09:06:02.515Z,101709.13
2022-11-02T09:08:33.210Z,101712.03
2022-11-02T09:11:04.418Z,101706.09
2022-11-02T09:13:32.979Z,101725.00
2022-11-02T09:16:02.719Z,101716.25
2022-11-02T09:18:31.488Z,101716.41
2022-11-02T09:21:03.415Z,101716.75
2022-11-02T09:23:33.567Z,101723.00
2022-11-02T09:26:01.834Z,101718.53
2022-11-02T09:28:30.055Z,101732.84
2022-11-02T09:30:58.385Z,101736.28
2022-11-02T09:33:26.573Z,101735.69
2022-11-02T09:35:54.947Z,101749.00
2022-11-02T09:38:23.129Z,101729.94
2022-11-02T09:41:09.799Z,101725.00
2022-11-02T09:43:51.216Z,101739.25
2022-11-02T09:46:25.169Z,101735.97
2022-11-02T09:48:57.927Z,101739.06
2022-11-02T09:51:30.659Z,101745.03
2022-11-02T09:54:13.039Z,101731.91
2022-11-02T09:56:47.564Z,101741.56
2022-11-02T09:59:18.807Z,101734.91
2022-11-02T10:02:02.448Z,101729.72
2022-11-02T10:05:15.698Z,101742.09
2022-11-02T10:08:15.597Z,101736.69
2022-11-02T10:10:57.487Z,101747.03
2022-11-02T10:13:37.691Z,101748.03
2022-11-02T10:16:12.232Z,101763.41
2022-11-02T10:18:43.072Z,101768.75
2022-11-02T10:21:17.733Z,101762.84
2022-11-02T10:23:52.861Z,101768.31
2022-11-02T10:26:33.155Z,101769.16
2022-11-02T10:29:17.111Z,101760.22
2022-11-02T10:31:45.678Z,101763.78
2022-11-02T10:34:24.750Z,101769.31
2022-11-02T10:37:10.805Z,101754.28
2022-11-02T10:39:49.024Z,101767.84
2022-11-02T10:42:53.745Z,101772.00
2022-11-02T10:45:57.879Z,101763.97
2022-11-02T10:48:40.113Z,101760.06
2022-11-02T10:51:12.369Z,101768.78
2022-11-02T10:53:44.937Z,101771.28
2022-11-02T10:56:18.849Z,101767.41
2022-11-02T10:58:59.046Z,101775.84
2022-11-02T11:01:27.920Z,101771.44
2022-11-02T11:04:00.171Z,101773.50
2022-11-02T11:06:32.453Z,101774.09
2022-11-02T11:09:05.115Z,101775.25
2022-11-02T11:11:36.983Z,101780.81
2022-11-02T11:20:07.219Z,101784.47
2022-11-02T11:22:39.967Z,101781.31
2022-11-02T11:25:27.545Z,101781.72
2022-11-02T11:27:58.132Z,101778.63
2022-11-02T11:30:58.518Z,101774.22
2022-11-02T11:33:23.048Z,101790.28
2022-11-02T11:35:52.818Z,101787.03
2022-11-02T11:38:24.506Z,101781.19
2022-11-02T11:40:57.702Z,101783.50
2022-11-02T11:43:28.436Z,101781.94
2022-11-02T11:46:05.972Z,101787.03
2022-11-02T11:48:40.088Z,101781.16
2022-11-02T11:51:27.557Z,101785.34
2022-11-02T11:54:26.384Z,101783.47
2022-11-02T11:56:57.448Z,101782.56
2022-11-02T11:59:29.679Z,101781.56
2022-11-02T12:02:02.458Z,101787.47
2022-11-02T12:04:34.949Z,101765.59
2022-11-02T12:07:39.867Z,101772.13
2022-11-02T12:10:17.958Z,101771.53
2022-11-02T12:13:11.632Z,101773.22
2022-11-02T12:15:58.602Z,101759.09
2022-11-02T12:18:49.067Z,101759.09
2022-11-02T12:21:39.935Z,101752.06
2022-11-02T12:24:40.424Z,101757.97
2022-11-02T12:27:25.351Z,101760.31
2022-11-02T12:30:10.081Z,101763.31
2022-11-02T12:33:15.163Z,101758.34
2022-11-02T12:36:05.276Z,101752.53
2022-11-02T12:38:52.272Z,101761.41
2022-11-02T12:41:43.851Z,101746.63
2022-11-02T12:44:29.121Z,101748.91
2022-11-02T12:47:05.816Z,101752.19
2022-11-02T12:49:43.075Z,101756.44
2022-11-02T12:52:30.573Z,101756.44
2022-11-02T12:55:02.924Z,101756.69
2022-11-02T12:57:36.961Z,101764.91
2022-11-02T13:00:09.726Z,101757.97
2022-11-02T13:02:55.129Z,101758.22
2022-11-02T13:05:28.648Z,101763.56
2022-11-02T13:08:16.047Z,101747.19
2022-11-02T13:10:53.353Z,101755.81
2022-11-02T13:13:30.907Z,101750.03
2022-11-02T13:16:00.820Z,101747.72
2022-11-02T13:18:34.383Z,101730.75
2022-11-02T13:21:05.411Z,101738.75
2022-11-02T13:23:41.556Z,101729.78
2022-11-02T13:26:22.410Z,101741.69
2022-11-02T13:28:56.688Z,101733.97
2022-11-02T13:31:34.821Z,101716.94
2022-11-02T13:34:07.930Z,101724.78
2022-11-02T13:36:39.238Z,101726.09
2022-11-02T13:39:17.383Z,101722.63
2022-11-02T13:42:25.692Z,101715.75
2022-11-02T13:45:46.908Z,101719.38
2022-11-02T13:48:51.810Z,101723.13
2022-11-02T13:51:31.116Z,101715.56
2022-11-02T13:54:04.071Z,101725.00
2022-11-02T13:56:37.893Z,101723.19
2022-11-02T13:59:10.192Z,101723.13
2022-11-02T14:01:42.098Z,101711.34
2022-11-02T14:04:13.749Z,101705.00
2022-11-02T14:06:52.615Z,101710.91
2022-11-02T14:09:28.995Z,101708.47
2022-11-02T14:12:40.376Z,101703.56
2022-11-02T14:15:53.516Z,101704.94
2022-11-02T14:18:32.619Z,101710.94
2022-11-02T14:21:21.923Z,101704.38
2022-11-02T14:23:50.189Z,101698.75
2022-11-02T14:26:53.528Z,101695.81
2022-11-02T14:29:53.482Z,101696.22
2022-11-02T14:32:49.727Z,101697.59
2022-11-02T14:35:34.183Z,101697.16
2022-11-02T14:38:45.136Z,101686.38
2022-11-02T14:41:46.037Z,101691.63
2022-11-02T14:44:50.205Z,101689.44
2022-11-02T14:47:20.484Z,101690.56
2022-11-02T14:49:54.638Z,101683.56
2022-11-02T14:52:28.808Z,101679.19
2022-11-02T14:55:20.584Z,101683.16
2022-11-02T14:57:55.249Z,101673.03
2022-11-02T15:00:28.919Z,101667.78
2022-11-02T15:02:59.645Z,101663.84
2022-11-02T15:05:32.430Z,101666.78
2022-11-02T15:08:04.021Z,101666.31
2022-11-02T15:10:47.188Z,101668.06
2022-11-02T15:13:48.615Z,101674.31
2022-11-02T15:16:26.667Z,101657.41
2022-11-02T15:19:16.201Z,101655.97
2022-11-02T15:21:46.161Z,101654.63
2022-11-02T15:24:29.581Z,101636.53
2022-11-02T15:27:00.578Z,101647.09
2022-11-02T15:29:44.929Z,101646.69
2022-11-02T15:32:22.644Z,101642.97
2022-11-02T15:34:54.363Z,101645.75
2022-11-02T15:37:26.534Z,101646.69
2022-11-02T15:39:57.336Z,101649.53
2022-11-02T15:42:39.401Z,101655.13
2022-11-02T15:45:50.518Z,101645.25
2022-11-02T15:48:40.054Z,101647.16
2022-11-02T15:51:21.860Z,101644.38
2022-11-02T15:54:10.605Z,101649.28
2022-11-02T15:56:52.932Z,101650.88
2022-11-02T15:59:46.722Z,101640.13
2022-11-02T16:02:27.951Z,101648.09
2022-11-02T16:05:00.188Z,101634.50
2022-11-02T16:07:38.405Z,101632.81
2022-11-02T16:10:26.726Z,101644.72
2022-11-02T16:12:59.701Z,101637.44
2022-11-02T16:15:28.746Z,101638.13
2022-11-02T16:17:58.402Z,101637.94
2022-11-02T16:20:29.669Z,101629.75
2022-11-02T16:23:00.991Z,101629.59
2022-11-02T16:25:39.924Z,101632.03
2022-11-02T16:28:19.833Z,101621.22
2022-11-02T16:31:12.513Z,101627.06
2022-11-02T16:33:45.430Z,101628.69
2022-11-02T16:36:17.643Z,101619.47
2022-11-02T16:38:53.446Z,101624.53
2022-11-02T16:41:25.664Z,101631.19
2022-11-02T16:43:54.327Z,101626.56
2022-11-02T16:46:31.870Z,101632.59
2022-11-02T16:49:16.072Z,101622.06
2022-11-02T16:51:51.667Z,101620.22
2022-11-02T16:54:41.241Z,101636.88
2022-11-02T16:57:20.056Z,101624.50
2022-11-02T16:59:52.951Z,101625.13
2022-11-02T17:02:37.658Z,101620.31
2022-11-02T17:05:15.426Z,101623.94
2022-11-02T17:07:48.244Z,101617.88
2022-11-02T17:10:22.520Z,101630.88
2022-11-02T17:12:52.582Z,101624.19
2022-11-02T17:15:24.234Z,101620.56
2022-11-02T17:18:24.614Z,101610.38
2022-11-02T17:21:28.295Z,101616.06
2022-11-02T17:23:59.399Z,101621.16
2022-11-02T17:26:37.577Z,101618.38
2022-11-02T17:29:35.207Z,101615.63
2022-11-02T17:32:05.337Z,101621.47
2022-11-02T17:34:35.698Z,101618.03
2022-11-02T17:37:04.030Z,101629.50
2022-11-02T17:39:34.629Z,101625.56
2022-11-02T17:42:20.480Z,101628.22
2022-11-02T17:44:50.079Z,101635.16
2022-11-02T17:47:20.561Z,101631.53
2022-11-02T17:49:48.759Z,101624.97
2022-11-02T17:52:17.380Z,101626.34
2022-11-02T17:54:45.560Z,101634.16
2022-11-02T17:57:15.848Z,101625.47
2022-11-02T17:59:44.259Z,101618.72
2022-11-02T18:02:16.017Z,101622.94
2022-11-02T18:04:44.682Z,101620.53
2022-11-02T18:07:13.016Z,101615.44
2022-11-02T18:09:41.333Z,101616.06
2022-11-02T18:12:13.294Z,101619.53
2022-11-02T18:14:41.480Z,101609.38
2022-11-02T18:17:09.961Z,101599.22
2022-11-02T18:19:39.495Z,101599.94
2022-11-02T18:22:07.677Z,101590.94
2022-11-02T18:24:35.866Z,101601.44
2022-11-02T18:27:04.160Z,101598.19
2022-11-02T18:29:32.338Z,101594.03
2022-11-02T18:32:00.494Z,101593.94
2022-11-02T18:34:28.671Z,101590.44
2022-11-02T18:36:58.203Z,101591.47
2022-11-02T18:39:26.419Z,101595.00
2022-11-02T18:41:54.590Z,101592.19
2022-11-02T18:44:22.889Z,101600.81
2022-11-02T18:46:51.055Z,101593.59
2022-11-02T18:49:19.269Z,101599.09
2022-11-02T18:51:47.697Z,101589.50
2022-11-02T18:54:17.935Z,101588.00
2022-11-02T18:56:46.519Z,101591.31
2022-11-02T18:59:14.816Z,101588.66
2022-11-02T19:01:43.106Z,101588.47
2022-11-02T19:04:17.216Z,101582.91
2022-11-02T19:07:03.910Z,101585.28
2022-11-02T19:09:33.574Z,101583.59
2022-11-02T19:12:08.751Z,101573.03
2022-11-02T19:14:39.837Z,101569.34
2022-11-02T19:17:10.065Z,101576.91
2022-11-02T19:19:40.809Z,101571.31
2022-11-02T19:22:11.014Z,101573.97
2022-11-02T19:24:40.864Z,101569.78
2022-11-02T19:27:13.079Z,101568.75
2022-11-02T19:29:41.305Z,101563.84
2022-11-02T19:32:10.097Z,101560.94
2022-11-02T19:34:38.764Z,101549.38
2022-11-02T19:37:08.941Z,101553.34
2022-11-02T19:39:37.524Z,101539.91
2022-11-02T19:42:07.768Z,101542.94
2022-11-02T19:44:41.288Z,101531.25
2022-11-02T19:47:11.071Z,101526.97
2022-11-02T19:49:39.412Z,101521.59
2022-11-02T19:52:07.633Z,101522.69
2022-11-02T19:54:35.790Z,101514.66
2022-11-02T19:57:03.999Z,101511.94
2022-11-02T19:59:34.088Z,101511.97
2022-11-02T20:02:02.353Z,101512.22
2022-11-02T20:04:30.572Z,101502.31
2022-11-02T20:06:59.535Z,101509.25
2022-11-02T20:09:27.738Z,101504.53
2022-11-02T20:11:55.927Z,101493.19
2022-11-02T20:14:24.409Z,101489.84
2022-11-02T20:17:04.508Z,101494.34
2022-11-02T20:19:42.581Z,101489.00
2022-11-02T20:22:10.784Z,101481.66
2022-11-02T20:24:38.982Z,101485.50
2022-11-02T20:27:08.108Z,101487.38
2022-11-02T20:29:36.289Z,101479.22
2022-11-02T20:32:10.143Z,101480.63
2022-11-02T20:34:38.376Z,101471.22
2022-11-02T20:37:07.484Z,101473.50
2022-11-02T20:39:35.686Z,101471.59
2022-11-02T20:42:03.917Z,101465.28
2022-11-02T20:44:32.086Z,101463.22
2022-11-02T20:47:00.248Z,101461.78
2022-11-02T20:49:49.263Z,101456.94
2022-11-02T20:52:18.666Z,101453.19
2022-11-02T20:54:46.838Z,101450.31
2022-11-02T20:57:15.040Z,101448.38
2022-11-02T20:59:43.200Z,101447.41
2022-11-02T21:02:12.427Z,101451.00
2022-11-02T21:04:42.119Z,101447.25
2022-11-02T21:07:10.366Z,101439.00
2022-11-02T21:09:38.539Z,101435.00
2022-11-02T21:12:33.227Z,101430.97
2022-11-02T21:15:02.329Z,101430.63
2022-11-02T21:17:30.516Z,101438.16
2022-11-02T21:20:14.120Z,101431.84
2022-11-02T21:22:51.192Z,101435.88
2022-11-02T21:25:19.495Z,101431.00
2022-11-02T21:27:50.859Z,101427.09
2022-11-02T21:30:19.514Z,101430.34
2022-11-02T21:32:47.737Z,101418.19
2022-11-02T21:35:17.466Z,101412.34
2022-11-02T21:37:45.665Z,101412.22
2022-11-02T21:40:14.996Z,101421.28
2022-11-02T21:42:43.190Z,101415.22
2022-11-02T21:45:16.518Z,101412.31
2022-11-02T21:47:46.234Z,101405.69
2022-11-02T21:50:15.865Z,101410.06
2022-11-02T21:52:45.274Z,101413.53
2022-11-02T21:55:13.631Z,101410.72
2022-11-02T21:57:41.788Z,101403.16
2022-11-02T22:00:11.614Z,101393.75
2022-11-02T22:02:38.849Z,101404.13
2022-11-02T22:05:07.769Z,101398.75
2022-11-02T22:07:57.291Z,101398.88
2022-11-02T22:10:25.471Z,101393.59
2022-11-02T22:13:07.779Z,101386.41
2022-11-02T22:15:38.398Z,101382.72
2022-11-02T22:18:06.910Z,101384.75
2022-11-02T22:20:35.082Z,101365.00
2022-11-02T22:23:05.002Z,101366.38
2022-11-02T22:25:33.385Z,101364.94
2022-11-02T22:28:01.594Z,101369.63
2022-11-02T22:30:29.900Z,101359.66
2022-11-02T22:32:58.099Z,101357.66
2022-11-02T22:35:26.232Z,101343.44
2022-11-02T22:38:12.109Z,101349.22
2022-11-02T22:40:41.679Z,101345.66
2022-11-02T22:43:11.083Z,101334.19
2022-11-02T22:45:39.217Z,101340.84
2022-11-02T22:48:07.682Z,101336.09
2022-11-02T22:50:35.912Z,101331.97
2022-11-02T22:53:04.524Z,101329.78
2022-11-02T22:55:32.880Z,101323.16
2022-11-02T22:58:02.419Z,101329.84
2022-11-02T23:00:30.597Z,101318.16
2022-11-02T23:02:58.825Z,101322.44
2022-11-02T23:05:27.007Z,101318.13
2022-11-02T23:07:55.218Z,101304.78
2022-11-02T23:10:48.147Z,101312.06
2022-11-02T23:13:20.103Z,101296.16
2022-11-02T23:15:48.272Z,101293.03
2022-11-02T23:18:16.527Z,101292.97
2022-11-02T23:20:51.442Z,101286.41
2022-11-02T23:23:36.981Z,101288.78
2022-11-02T23:26:05.247Z,101277.50
2022-11-02T23:28:52.157Z,101283.56
2022-11-02T23:31:38.016Z,101269.34
2022-11-02T23:34:06.230Z,101276.25
2022-11-02T23:36:33.757Z,101278.81
2022-11-02T23:39:19.400Z,101281.16
2022-11-02T23:41:47.575Z,101272.41
2022-11-02T23:44:19.019Z,101270.22
2022-11-02T23:46:49.533Z,101275.03
2022-11-02T23:49:19.329Z,101279.25
2022-11-02T23:52:05.230Z,101280.81
2022-11-02T23:54:51.087Z,101273.25
2022-11-02T23:57:21.002Z,101271.91
2022-11-02T23:59:51.055Z,101264.59
